Time;durP1;ratioP1;P1;durP2;ratioP2;P2;SDS_P1;SDS_P2;PMS_P1;PMS_P2;Temp;Humidity;BMP_temperature;BMP_pressure;BME280_temperature;BME280_humidity;BME280_pressure;Samples;Min_cycle;Max_cycle;Signal;HPM_P1;HPM_P2
2022/08/08 00:01:04;;;;;;;3.17;1.43;;;;;;;19.48;72.95;99558.09;5088549;28;20191;-79
2022/08/08 00:03:45;;;;;;;3.27;1.30;;;;;;;19.38;73.58;99550.06;5085100;28;20218;-79
2022/08/08 00:06:29;;;;;;;2.17;1.10;;;;;;;19.29;74.20;99554.47;5090702;28;20198;-79
2022/08/08 00:09:06;;;;;;;3.17;1.07;;;;;;;19.39;74.19;99554.44;5081317;28;20817;-79
2022/08/08 00:11:39;;;;;;;1.73;1.20;;;;;;;19.25;74.73;99563.81;5085992;28;20191;-78
2022/08/08 00:14:53;;;;;;;1.50;0.90;;;;;;;19.06;76.44;99561.13;5090811;28;20603;-79
2022/08/08 00:17:42;;;;;;;2.03;0.90;;;;;;;19.06;76.77;99570.03;5090525;28;20280;-79
2022/08/08 00:20:36;;;;;;;2.87;1.00;;;;;;;19.11;76.87;99561.56;5172059;27;20188;-79
2022/08/08 00:23:10;;;;;;;4.27;0.90;;;;;;;19.26;75.91;99561.97;5166217;27;20279;-79
2022/08/08 00:25:46;;;;;;;2.03;1.00;;;;;;;19.25;75.83;99557.59;5175808;27;20200;-78
2022/08/08 00:28:25;;;;;;;1.47;0.90;;;;;;;19.12;76.30;99563.28;5173663;27;20193;-79
2022/08/08 00:31:09;;;;;;;2.57;0.90;;;;;;;19.01;77.13;99566.06;5177482;27;20189;-79
2022/08/08 00:37:01;;;;;;;1.60;1.00;;;;;;;18.97;77.54;99573.56;5177135;27;20235;-78
2022/08/08 00:40:18;;;;;;;1.27;0.90;;;;;;;18.99;77.14;99574.28;5179023;27;20204;-79
2022/08/08 00:43:43;;;;;;;1.10;0.80;;;;;;;18.89;78.29;99565.38;5179205;27;20197;-79
2022/08/08 00:46:55;;;;;;;2.57;1.10;;;;;;;19.03;77.65;99566.81;5173098;27;20695;-79
2022/08/08 00:50:19;;;;;;;2.10;1.07;;;;;;;18.98;78.19;99575.25;5175998;27;20213;-79
2022/08/08 00:52:56;;;;;;;1.40;0.97;;;;;;;18.96;78.28;99581.78;5147673;27;20216;-78
2022/08/08 00:56:08;;;;;;;2.27;1.07;;;;;;;18.72;79.81;99575.00;5179218;27;20197;-79
2022/08/08 00:59:19;;;;;;;3.33;1.03;;;;;;;18.79;80.04;99569.91;5173739;27;20201;-79
2022/08/08 01:02:33;;;;;;;2.67;1.00;;;;;;;18.74;80.51;99569.47;5178692;27;20207;-79
2022/08/08 01:05:59;;;;;;;1.00;0.90;;;;;;;18.73;80.83;99570.47;5153165;27;20257;-79
2022/08/08 01:09:01;;;;;;;2.10;1.00;;;;;;;18.71;81.58;99577.78;5174249;27;20197;-79
2022/08/08 01:12:35;;;;;;;1.07;0.80;;;;;;;18.62;81.14;99566.03;5152908;27;20200;-79
2022/08/08 01:15:53;;;;;;;4.33;1.13;;;;;;;18.59;81.53;99569.00;5164366;27;20275;-79
2022/08/08 01:18:55;;;;;;;2.00;1.00;;;;;;;18.42;83.11;99575.88;5111142;28;20226;-79
2022/08/08 01:21:56;;;;;;;1.87;0.90;;;;;;;18.57;81.54;99571.81;5111273;28;20305;-79
2022/08/08 01:25:24;;;;;;;1.40;1.00;;;;;;;18.51;81.78;99575.03;5170609;27;20197;-80
2022/08/08 01:28:21;;;;;;;1.40;1.03;;;;;;;18.49;82.54;99579.72;5176729;27;20189;-79
2022/08/08 01:31:38;;;;;;;2.10;1.03;;;;;;;18.43;82.85;99576.72;5132121;27;20217;-79
2022/08/08 01:34:58;;;;;;;1.00;0.90;;;;;;;18.37;84.02;99574.59;5114111;27;20202;-79
2022/08/08 01:38:11;;;;;;;1.53;1.07;;;;;;;18.33;84.78;99578.53;5132287;27;20198;-79
2022/08/08 01:40:53;;;;;;;4.57;0.90;;;;;;;18.47;85.25;99584.38;5134121;27;20195;-79
2022/08/08 01:43:33;;;;;;;2.57;1.23;;;;;;;18.35;84.57;99580.13;5128465;27;20194;-79
2022/08/08 01:46:23;;;;;;;1.27;0.90;;;;;;;18.28;85.51;99582.50;5128081;27;20201;-79
2022/08/08 01:49:07;;;;;;;1.00;0.90;;;;;;;18.41;84.69;99578.69;5151969;27;20201;-78
2022/08/08 01:52:02;;;;;;;1.23;1.07;;;;;;;18.34;85.44;99574.88;5169491;27;20196;-79
2022/08/08 01:55:06;;;;;;;1.57;0.97;;;;;;;18.26;85.07;99583.63;5178016;27;20197;-78
2022/08/08 01:58:21;;;;;;;1.50;1.00;;;;;;;18.43;84.31;99582.97;5149836;27;20200;-79
2022/08/08 02:01:17;;;;;;;1.73;1.00;;;;;;;18.36;84.70;99576.44;5177362;27;20715;-79
2022/08/08 02:04:05;;;;;;;3.40;0.93;;;;;;;18.33;84.72;99583.91;5173316;27;20196;-79
2022/08/08 02:06:57;;;;;;;1.27;0.90;;;;;;;18.15;85.59;99581.03;5169953;27;20257;-78
2022/08/08 02:09:42;;;;;;;1.00;0.80;;;;;;;18.29;85.33;99581.50;5169954;27;20288;-79
2022/08/08 02:12:45;;;;;;;1.80;1.10;;;;;;;18.15;86.39;99583.72;5177080;27;20196;-79
2022/08/08 02:15:23;;;;;;;4.03;0.90;;;;;;;18.17;87.35;99596.00;5177227;27;20193;-79
2022/08/08 02:17:58;;;;;;;1.70;0.97;;;;;;;18.06;87.67;99592.59;5174074;27;20207;-79
2022/08/08 02:20:31;;;;;;;1.23;0.80;;;;;;;18.09;87.72;99592.31;5174143;27;20217;-79
2022/08/08 02:23:26;;;;;;;1.00;0.90;;;;;;;18.16;86.63;99598.81;5175904;27;20201;-78
2022/08/08 02:26:08;;;;;;;2.43;0.90;;;;;;;17.97;87.77;99597.75;5171252;27;20200;-78
2022/08/08 02:28:47;;;;;;;3.47;0.90;;;;;;;18.07;88.18;99589.75;5177053;27;20228;-79
2022/08/08 02:31:39;;;;;;;1.43;1.03;;;;;;;18.14;88.04;99587.38;5168623;27;20216;-78
2022/08/08 02:34:46;;;;;;;1.20;1.00;;;;;;;18.15;87.90;99586.41;5146985;27;20272;-78
2022/08/08 02:37:50;;;;;;;1.83;0.80;;;;;;;17.99;88.93;99578.84;5175464;27;20244;-78
2022/08/08 02:40:41;;;;;;;1.00;0.90;;;;;;;18.06;88.70;99577.34;5176625;27;20193;-79
2022/08/08 02:43:43;;;;;;;1.40;0.90;;;;;;;17.81;90.07;99584.00;5171966;27;20189;-79
2022/08/08 02:47:08;;;;;;;1.30;1.07;;;;;;;17.94;90.37;99576.56;5176272;27;20234;-79
2022/08/08 02:50:09;;;;;;;2.33;0.90;;;;;;;17.81;91.52;99580.47;5168926;27;20369;-78
2022/08/08 02:52:59;;;;;;;1.53;1.00;;;;;;;17.76;92.09;99575.53;5173097;27;20189;-78
2022/08/08 02:56:26;;;;;;;1.10;0.90;;;;;;;17.87;91.99;99578.09;5171181;27;20197;-78
2022/08/08 02:59:39;;;;;;;1.30;1.10;;;;;;;17.68;93.44;99586.88;5172013;27;20192;-79
2022/08/08 03:03:00;;;;;;;3.17;1.00;;;;;;;17.59;94.29;99587.66;5176213;27;20249;-79
2022/08/08 03:06:11;;;;;;;2.90;1.10;;;;;;;17.60;94.96;99591.19;5169216;27;20193;-79
2022/08/08 03:09:37;;;;;;;1.17;1.00;;;;;;;17.36;96.63;99586.94;5175233;27;20628;-79
2022/08/08 03:12:58;;;;;;;1.10;0.90;;;;;;;17.28;97.05;99588.59;5173280;27;20213;-79
2022/08/08 03:15:59;;;;;;;1.17;0.97;;;;;;;17.38;97.25;99587.69;5169087;27;20260;-78
2022/08/08 03:18:44;;;;;;;5.43;1.40;;;;;;;17.21;98.76;99585.56;5151693;27;20193;-79
2022/08/08 03:21:12;;;;;;;1.23;0.93;;;;;;;17.14;99.71;99590.59;5165721;27;20256;-79
2022/08/08 03:23:44;;;;;;;2.13;1.10;;;;;;;16.98;100.00;99590.16;5174603;27;20193;-79
2022/08/08 03:26:32;;;;;;;2.13;1.00;;;;;;;17.04;100.00;99586.13;5175736;27;20204;-78
2022/08/08 03:29:16;;;;;;;1.97;1.20;;;;;;;16.84;100.00;99590.47;5176036;27;20283;-79
2022/08/08 03:34:41;;;;;;;1.27;1.00;;;;;;;16.93;100.00;99588.88;5175884;27;20249;-78
2022/08/08 03:37:11;;;;;;;3.50;1.00;;;;;;;17.05;100.00;99588.69;5168700;27;20518;-78
2022/08/08 03:40:03;;;;;;;1.80;0.90;;;;;;;16.87;100.00;99590.22;5175644;27;20201;-78
2022/08/08 03:42:32;;;;;;;2.30;0.93;;;;;;;16.91;100.00;99593.50;5175507;27;20280;-78
2022/08/08 03:45:00;;;;;;;2.30;1.10;;;;;;;16.74;100.00;99586.88;5169766;27;20196;-78
2022/08/08 03:47:56;;;;;;;3.10;1.03;;;;;;;16.68;100.00;99592.69;5175611;27;20193;-78
2022/08/08 03:50:27;;;;;;;2.47;1.30;;;;;;;16.71;100.00;99589.81;5165793;27;20223;-78
2022/08/08 03:52:56;;;;;;;1.83;1.10;;;;;;;16.72;100.00;99595.03;5171628;27;20185;-79
2022/08/08 03:55:27;;;;;;;2.50;1.20;;;;;;;16.60;100.00;99596.84;5175566;27;20195;-78
2022/08/08 03:58:20;;;;;;;1.87;1.27;;;;;;;16.68;100.00;99590.88;5175094;27;20196;-78
2022/08/08 04:01:05;;;;;;;1.93;1.00;;;;;;;16.73;100.00;99601.22;5175760;27;20185;-78
2022/08/08 04:03:53;;;;;;;2.40;1.30;;;;;;;16.88;100.00;99598.09;5171262;27;20226;-78
2022/08/08 04:06:26;;;;;;;3.23;1.10;;;;;;;16.93;100.00;99597.75;5166497;27;20245;-78
2022/08/08 04:09:05;;;;;;;2.97;1.20;;;;;;;16.77;100.00;99605.34;5167971;27;20197;-78
2022/08/08 04:11:43;;;;;;;2.57;1.00;;;;;;;16.66;100.00;99600.84;5163419;27;20236;-79
2022/08/08 04:14:25;;;;;;;2.73;1.23;;;;;;;16.60;100.00;99610.22;5175330;27;20196;-78
2022/08/08 04:17:03;;;;;;;4.50;1.30;;;;;;;16.57;100.00;99613.13;5173688;27;20241;-78
2022/08/08 04:19:44;;;;;;;6.90;1.50;;;;;;;16.31;100.00;99607.25;5175118;27;20193;-78
2022/08/08 04:22:12;;;;;;;2.20;1.10;;;;;;;16.52;100.00;99604.66;5167420;27;20248;-79
2022/08/08 04:24:44;;;;;;;1.30;1.00;;;;;;;16.52;100.00;99606.47;5170388;27;20197;-79
2022/08/08 04:27:18;;;;;;;3.53;1.43;;;;;;;16.58;100.00;99600.59;5170841;27;20666;-79
2022/08/08 04:30:09;;;;;;;2.30;1.00;;;;;;;16.79;100.00;99608.72;5175087;27;20219;-79
2022/08/08 04:32:46;;;;;;;2.37;1.30;;;;;;;16.66;100.00;99605.34;5171098;27;20624;-79
2022/08/08 04:35:18;;;;;;;3.00;1.07;;;;;;;16.79;100.00;99606.06;5171146;27;20232;-78
2022/08/08 04:37:50;;;;;;;3.30;1.20;;;;;;;16.90;100.00;99611.38;5169297;27;20219;-79
2022/08/08 04:40:20;;;;;;;3.77;1.53;;;;;;;16.90;100.00;99608.72;5165781;27;20207;-78
2022/08/08 04:42:55;;;;;;;2.73;1.20;;;;;;;16.94;100.00;99606.63;5174910;27;20193;-79
2022/08/08 04:45:28;;;;;;;2.43;1.07;;;;;;;17.00;100.00;99609.66;5171687;27;20193;-79
2022/08/08 04:47:57;;;;;;;1.83;1.10;;;;;;;17.06;100.00;99602.91;5166785;27;20204;-79
2022/08/08 04:50:28;;;;;;;2.00;1.20;;;;;;;17.04;100.00;99604.88;5168288;27;20520;-78
2022/08/08 04:53:06;;;;;;;2.87;1.10;;;;;;;16.76;100.00;99620.53;5174293;27;20224;-78
2022/08/08 04:55:54;;;;;;;3.60;1.10;;;;;;;16.77;100.00;99627.59;5175335;27;20666;-78
2022/08/08 04:58:25;;;;;;;2.43;1.20;;;;;;;16.52;100.00;99628.72;5170501;27;20181;-79
2022/08/08 05:00:54;;;;;;;3.30;1.23;;;;;;;16.25;100.00;99631.78;5165588;27;20197;-79
2022/08/08 05:03:25;;;;;;;1.30;1.10;;;;;;;16.39;100.00;99635.16;5172157;27;20663;-79
2022/08/08 05:06:14;;;;;;;2.53;1.20;;;;;;;16.39;100.00;99636.00;5174981;27;20233;-79
2022/08/08 05:08:53;;;;;;;3.80;1.07;;;;;;;16.33;100.00;99644.53;5172087;27;20272;-78
2022/08/08 05:11:22;;;;;;;3.20;1.20;;;;;;;16.52;100.00;99636.75;5168063;27;20694;-79
2022/08/08 05:13:54;;;;;;;2.80;1.20;;;;;;;16.54;100.00;99636.63;5172538;27;20219;-79
2022/08/08 05:16:29;;;;;;;4.20;1.10;;;;;;;16.81;100.00;99644.25;5173644;27;20204;-79
2022/08/08 05:19:17;;;;;;;1.27;1.17;;;;;;;16.79;100.00;99638.16;5178609;27;20196;-78
2022/08/08 05:22:07;;;;;;;2.80;1.13;;;;;;;17.04;100.00;99637.84;5176636;27;20269;-78
2022/08/08 05:24:36;;;;;;;1.57;1.00;;;;;;;17.28;100.00;99651.03;5169912;27;20309;-79
2022/08/08 05:27:06;;;;;;;1.57;1.10;;;;;;;17.15;100.00;99651.19;5167283;27;20185;-78
2022/08/08 05:29:36;;;;;;;3.20;1.13;;;;;;;17.37;100.00;99638.66;5178179;27;20652;-79
2022/08/08 05:32:08;;;;;;;1.60;1.07;;;;;;;17.54;100.00;99651.47;5172540;27;20220;-78
2022/08/08 05:34:44;;;;;;;2.50;1.10;;;;;;;17.60;100.00;99652.81;5175666;27;20252;-79
2022/08/08 05:37:18;;;;;;;1.70;1.20;;;;;;;17.62;100.00;99646.31;5169562;27;20193;-79
2022/08/08 05:39:50;;;;;;;5.13;1.20;;;;;;;17.76;100.00;99655.91;5168603;27;20193;-77
2022/08/08 05:42:22;;;;;;;3.87;1.10;;;;;;;17.86;100.00;99650.59;5167671;27;20204;-78
2022/08/08 05:45:01;;;;;;;1.37;1.07;;;;;;;17.80;100.00;99651.13;5172952;27;20639;-78
2022/08/08 05:47:52;;;;;;;4.37;1.10;;;;;;;17.94;100.00;99646.25;5177902;27;20207;-79
2022/08/08 05:50:36;;;;;;;1.90;0.83;;;;;;;17.90;100.00;99652.03;5172582;27;20201;-78
2022/08/08 05:53:06;;;;;;;2.50;1.27;;;;;;;17.64;100.00;99649.72;5168080;27;20285;-78
2022/08/08 05:55:58;;;;;;;3.30;1.40;;;;;;;17.84;100.00;99658.75;5178006;27;20226;-78
2022/08/08 05:58:43;;;;;;;2.47;1.27;;;;;;;17.88;100.00;99652.16;5172617;27;20212;-78
2022/08/08 06:01:33;;;;;;;1.63;1.23;;;;;;;17.91;100.00;99664.44;5174301;27;20193;-78
2022/08/08 06:04:24;;;;;;;1.87;1.23;;;;;;;18.05;100.00;99663.25;5177654;27;20262;-77
2022/08/08 06:06:55;;;;;;;2.30;1.23;;;;;;;18.14;99.66;99660.59;5167335;27;20197;-78
2022/08/08 06:09:31;;;;;;;2.10;1.00;;;;;;;18.22;98.18;99670.66;5177384;27;20275;-78
2022/08/08 06:12:22;;;;;;;1.03;0.90;;;;;;;18.42;97.24;99671.59;5177249;27;20666;-78
2022/08/08 06:15:00;;;;;;;1.57;1.10;;;;;;;18.42;97.52;99669.75;5172624;27;20196;-77
2022/08/08 06:17:34;;;;;;;1.70;1.30;;;;;;;18.51;96.64;99674.31;5171372;27;20217;-78
2022/08/08 06:20:22;;;;;;;2.90;1.20;;;;;;;18.67;95.16;99671.16;5176863;27;20201;-78
2022/08/08 06:22:53;;;;;;;3.73;1.10;;;;;;;18.70;93.96;99681.59;5167515;27;20193;-78
2022/08/08 06:25:24;;;;;;;4.63;1.73;;;;;;;18.95;92.50;99687.47;5172653;27;20186;-78
2022/08/08 06:28:18;;;;;;;1.90;1.10;;;;;;;18.96;93.98;99689.16;5177109;27;20245;-78
2022/08/08 06:31:00;;;;;;;2.30;1.27;;;;;;;19.31;92.38;99683.28;5173467;27;20189;-77
2022/08/08 06:33:36;;;;;;;2.23;0.97;;;;;;;19.17;90.83;99692.59;5173855;27;20242;-77
2022/08/08 06:36:31;;;;;;;2.13;1.00;;;;;;;19.40;87.81;99688.66;5176887;27;20245;-77
2022/08/08 06:39:08;;;;;;;1.33;1.00;;;;;;;19.42;87.96;99694.72;5172456;27;20220;-78
2022/08/08 06:41:42;;;;;;;3.70;1.13;;;;;;;19.45;87.40;99689.06;5169585;27;20219;-77
2022/08/08 06:44:17;;;;;;;3.13;1.00;;;;;;;19.61;85.80;99690.38;5170038;27;20197;-77
2022/08/08 06:46:53;;;;;;;3.30;1.30;;;;;;;19.72;82.30;99693.75;5176577;27;20221;-77
2022/08/08 06:49:23;;;;;;;1.53;1.00;;;;;;;19.95;78.54;99691.56;5169839;27;20223;-77
2022/08/08 06:52:12;;;;;;;3.70;1.10;;;;;;;20.12;77.93;99691.84;5175223;27;20289;-78
2022/08/08 06:54:43;;;;;;;4.03;1.30;;;;;;;20.00;75.75;99693.84;5172315;27;20218;-77
2022/08/08 06:57:16;;;;;;;3.77;1.20;;;;;;;20.13;74.13;99696.22;5176393;27;20185;-77
2022/08/08 06:59:45;;;;;;;3.63;1.20;;;;;;;20.37;73.53;99695.72;5176489;27;20196;-78
2022/08/08 07:02:37;;;;;;;2.57;1.00;;;;;;;20.32;74.08;99693.47;5176525;27;20193;-78
2022/08/08 07:05:15;;;;;;;2.57;1.10;;;;;;;20.33;72.78;99692.47;5133666;27;20208;-78
2022/08/08 07:08:02;;;;;;;2.53;0.95;;;;;;;20.59;71.94;99703.44;5170522;27;20204;-78
2022/08/08 07:10:36;;;;;;;2.80;0.90;;;;;;;20.60;69.96;99698.91;5169445;27;20220;-78
2022/08/08 07:13:10;;;;;;;1.00;0.90;;;;;;;20.70;69.03;99694.31;5176181;27;20216;-78
2022/08/08 07:15:45;;;;;;;1.43;1.10;;;;;;;20.76;69.27;99699.13;5173142;27;20199;-78
2022/08/08 07:18:46;;;;;;;3.10;1.07;;;;;;;20.96;68.48;99699.84;5176108;27;20192;-78
2022/08/08 07:21:22;;;;;;;3.37;1.07;;;;;;;21.19;67.45;99700.25;5169530;27;20231;-81
2022/08/08 07:24:01;;;;;;;3.97;1.08;;;;;;;21.22;66.43;99700.78;5174652;27;20193;-77
2022/08/08 07:26:33;;;;;;;4.07;1.00;;;;;;;21.49;66.20;99708.00;5173092;27;20242;-78
2022/08/08 07:29:05;;;;;;;1.97;1.00;;;;;;;21.40;65.23;99707.06;5170728;27;20181;-78
2022/08/08 07:31:56;;;;;;;1.85;0.98;;;;;;;21.67;62.90;99705.28;5175744;27;20200;-78
2022/08/08 07:34:27;;;;;;;3.00;1.17;;;;;;;21.74;62.85;99710.91;5166867;27;20424;-78
2022/08/08 07:37:03;;;;;;;3.92;1.13;;;;;;;21.71;62.46;99704.84;5171240;27;20272;-77
2022/08/08 07:39:42;;;;;;;2.65;0.90;;;;;;;21.99;62.30;99702.00;5173989;27;20669;-78
2022/08/08 07:42:25;;;;;;;3.25;0.93;;;;;;;22.07;60.64;99701.25;5174980;27;20193;-78
2022/08/08 07:45:01;;;;;;;2.90;1.10;;;;;;;22.06;61.49;99708.47;5169595;27;20193;-78
2022/08/08 07:47:30;;;;;;;2.20;1.10;;;;;;;22.05;60.43;99706.78;5172338;27;20202;-78
2022/08/08 07:50:07;;;;;;;3.03;1.15;;;;;;;22.00;60.27;99703.69;5170255;27;20207;-78
2022/08/08 07:52:44;;;;;;;3.83;1.00;;;;;;;22.19;59.20;99702.66;5168293;27;20268;-78
2022/08/08 07:55:21;;;;;;;3.05;1.08;;;;;;;22.57;57.77;99713.00;5172890;27;20271;-78
2022/08/08 07:58:13;;;;;;;4.05;0.93;;;;;;;22.73;58.05;99708.69;5172083;27;20817;-78
2022/08/08 08:00:49;;;;;;;1.67;1.02;;;;;;;22.93;56.91;99706.59;5169310;27;20324;-78
2022/08/08 08:03:23;;;;;;;6.97;1.20;;;;;;;22.84;55.10;99709.28;5171423;27;20224;-78
2022/08/08 08:05:56;;;;;;;2.85;0.95;;;;;;;22.93;55.81;99706.59;5168316;27;20197;-78
2022/08/08 08:08:32;;;;;;;3.50;1.08;;;;;;;23.21;55.03;99709.91;5166957;27;20196;-78
2022/08/08 08:11:04;;;;;;;2.50;1.00;;;;;;;23.06;55.47;99715.91;5172648;27;20192;-78
2022/08/08 08:13:36;;;;;;;3.00;1.15;;;;;;;23.01;55.75;99721.00;5170058;27;20255;-78
2022/08/08 08:16:28;;;;;;;4.38;1.23;;;;;;;23.37;55.30;99712.63;5175280;27;20200;-78
2022/08/08 08:19:01;;;;;;;4.30;1.13;;;;;;;23.53;54.72;99718.03;5172735;27;20192;-77
2022/08/08 08:21:34;;;;;;;3.67;1.05;;;;;;;23.43;53.32;99711.94;5169400;27;20393;-78
2022/08/08 08:24:24;;;;;;;2.95;1.02;;;;;;;23.57;53.57;99714.00;5175302;27;20216;-77
2022/08/08 08:26:59;;;;;;;2.05;1.10;;;;;;;23.62;53.17;99713.53;5168262;27;20196;-77
2022/08/08 08:29:30;;;;;;;4.28;1.00;;;;;;;23.87;52.33;99717.09;5167485;27;20201;-77
2022/08/08 08:31:59;;;;;;;2.95;1.05;;;;;;;24.02;50.77;99711.81;5174880;27;20196;-78
2022/08/08 08:34:33;;;;;;;3.80;1.13;;;;;;;24.16;49.93;99705.72;5172235;27;20213;-77
2022/08/08 08:37:02;;;;;;;3.17;1.20;;;;;;;24.06;49.71;99708.63;5168161;27;20280;-77
2022/08/08 08:39:38;;;;;;;2.65;1.30;;;;;;;24.46;47.88;99705.00;5102609;28;20191;-78
2022/08/08 08:42:26;;;;;;;3.50;0.90;;;;;;;24.48;46.83;99704.81;5110852;28;20226;-77
2022/08/08 08:45:04;;;;;;;2.45;1.02;;;;;;;24.77;46.10;99704.22;5109881;28;20195;-77
2022/08/08 08:47:52;;;;;;;2.03;1.17;;;;;;;24.97;46.34;99704.63;5110393;28;20202;-77
2022/08/08 08:50:24;;;;;;;2.35;0.90;;;;;;;24.76;45.98;99716.06;5107458;28;20205;-77
2022/08/08 08:53:03;;;;;;;2.83;1.00;;;;;;;24.75;46.10;99706.25;5052490;28;20229;-77
2022/08/08 08:55:54;;;;;;;5.55;1.10;;;;;;;25.03;45.84;99712.94;5054009;28;20205;-77
2022/08/08 08:58:32;;;;;;;1.45;1.00;;;;;;;25.02;45.08;99716.66;5052089;28;20196;-76
2022/08/08 09:01:02;;;;;;;2.70;1.00;;;;;;;25.10;43.51;99707.66;5051073;28;20307;-77
2022/08/08 09:03:37;;;;;;;2.35;0.90;;;;;;;25.17;43.75;99710.47;5065830;28;20258;-77
2022/08/08 09:06:21;;;;;;;2.55;0.80;;;;;;;25.47;43.18;99717.72;5114532;28;20194;-78
2022/08/08 09:09:02;;;;;;;4.43;1.35;;;;;;;25.52;42.67;99718.03;5049261;28;20240;-77
2022/08/08 09:11:35;;;;;;;1.52;0.90;;;;;;;25.65;42.15;99720.13;5089428;28;20202;-78
2022/08/08 09:14:15;;;;;;;2.20;1.02;;;;;;;25.82;41.19;99716.31;5109698;28;20732;-77
2022/08/08 09:16:46;;;;;;;3.42;1.05;;;;;;;25.97;40.62;99716.38;5105218;28;20203;-77
2022/08/08 09:19:17;;;;;;;3.10;0.77;;;;;;;26.02;40.13;99722.06;5104681;28;20393;-77
2022/08/08 09:22:06;;;;;;;1.92;1.10;;;;;;;25.84;39.30;99714.25;5112188;28;20227;-77
2022/08/08 09:24:37;;;;;;;1.38;1.00;;;;;;;25.80;40.14;99710.22;5107712;28;20195;-77
2022/08/08 09:27:10;;;;;;;2.33;0.90;;;;;;;26.41;38.57;99716.44;5082777;28;20200;-77
2022/08/08 09:29:53;;;;;;;1.52;0.80;;;;;;;26.55;37.34;99714.78;5081504;27;20204;-79
2022/08/08 09:32:36;;;;;;;3.25;1.10;;;;;;;26.44;37.44;99709.78;5079632;27;20192;-79
2022/08/08 09:35:07;;;;;;;2.05;0.80;;;;;;;26.60;35.71;99712.31;5078213;27;20216;-79
2022/08/08 09:37:48;;;;;;;1.15;0.93;;;;;;;26.79;34.96;99709.03;5076331;27;20196;-79
2022/08/08 09:40:32;;;;;;;2.45;0.85;;;;;;;26.65;35.17;99712.63;5082531;27;20204;-79
2022/08/08 09:43:29;;;;;;;1.17;0.80;;;;;;;26.77;34.91;99704.81;5071767;28;20197;-77
2022/08/08 09:46:21;;;;;;;2.75;1.00;;;;;;;26.84;36.30;99705.75;5072077;27;20200;-77
2022/08/08 09:48:58;;;;;;;2.45;0.90;;;;;;;27.06;34.66;99712.97;5083836;27;20204;-79
2022/08/08 09:51:55;;;;;;;1.50;1.02;;;;;;;27.31;33.83;99699.00;5070593;28;20207;-79
2022/08/08 09:54:43;;;;;;;3.00;1.02;;;;;;;27.13;33.49;99706.78;5071728;28;20686;-79
2022/08/08 09:57:17;;;;;;;1.48;1.20;;;;;;;27.20;34.24;99703.06;5121600;27;20196;-79
2022/08/08 09:59:59;;;;;;;2.00;0.90;;;;;;;27.73;33.51;99692.75;5083371;27;20204;-79
2022/08/08 10:02:49;;;;;;;1.73;0.90;;;;;;;27.51;33.44;99691.91;5071735;27;20200;-79
2022/08/08 10:05:19;;;;;;;4.22;1.00;;;;;;;27.64;33.25;99694.75;5077267;27;20215;-79
2022/08/08 10:07:57;;;;;;;4.20;0.90;;;;;;;27.68;34.64;99697.94;5073152;27;20244;-79
2022/08/08 10:10:29;;;;;;;2.42;0.90;;;;;;;28.15;33.76;99701.88;5079609;27;20188;-79
2022/08/08 10:12:59;;;;;;;1.95;0.80;;;;;;;28.07;33.45;99688.41;5077312;27;20237;-79
2022/08/08 10:15:45;;;;;;;3.00;0.82;;;;;;;28.50;32.80;99684.56;5073745;27;20303;-79
2022/08/08 10:18:29;;;;;;;2.53;0.90;;;;;;;28.59;32.84;99684.41;5074297;27;20184;-79
2022/08/08 10:21:03;;;;;;;1.85;0.88;;;;;;;28.49;32.79;99687.50;5108671;27;20229;-79
2022/08/08 10:23:52;;;;;;;1.83;0.82;;;;;;;28.59;32.09;99689.84;5172971;27;20201;-79
2022/08/08 10:26:31;;;;;;;4.53;1.00;;;;;;;29.12;31.99;99690.09;5170362;27;20241;-79
2022/08/08 10:29:35;;;;;;;1.20;0.80;;;;;;;29.13;31.13;99681.69;5177446;27;20197;-79
2022/08/08 10:32:36;;;;;;;1.23;0.73;;;;;;;29.31;30.75;99681.13;5177573;27;20197;-79
2022/08/08 10:35:08;;;;;;;1.15;1.05;;;;;;;28.71;31.59;99680.03;5171187;27;20212;-79
2022/08/08 10:37:53;;;;;;;1.45;0.88;;;;;;;29.64;30.70;99679.31;5136226;27;20201;-79
2022/08/08 10:40:23;;;;;;;0.93;0.80;;;;;;;29.50;30.51;99676.75;5170087;27;20184;-79
2022/08/08 10:43:00;;;;;;;1.90;0.98;;;;;;;29.35;30.65;99675.06;5175023;27;20251;-80
2022/08/08 10:45:30;;;;;;;1.88;1.10;;;;;;;30.04;29.32;99673.84;5176602;27;20532;-79
2022/08/08 10:48:11;;;;;;;0.88;0.80;;;;;;;28.83;30.09;99667.50;5176778;27;20218;-79
2022/08/08 10:50:40;;;;;;;2.47;0.70;;;;;;;29.66;29.34;99664.63;5171130;27;20204;-79
2022/08/08 10:53:11;;;;;;;3.42;0.80;;;;;;;30.03;29.06;99668.59;5158513;27;20206;-80
2022/08/08 10:55:43;;;;;;;2.90;0.98;;;;;;;30.42;29.04;99654.06;5158555;27;20213;-80
2022/08/08 10:58:14;;;;;;;1.30;0.80;;;;;;;30.34;29.22;99668.78;5165168;27;20196;-80
2022/08/08 11:00:44;;;;;;;2.22;0.98;;;;;;;30.38;29.21;99669.19;5167397;27;20667;-80
2022/08/08 11:03:41;;;;;;;2.60;0.82;;;;;;;30.52;28.39;99665.38;5176753;27;20185;-80
2022/08/08 11:06:30;;;;;;;1.40;0.90;;;;;;;30.21;28.84;99666.09;5173143;27;20204;-79
2022/08/08 11:09:03;;;;;;;1.63;0.80;;;;;;;30.52;29.04;99670.00;5106438;28;20188;-79
2022/08/08 11:11:47;;;;;;;1.35;0.90;;;;;;;30.44;28.16;99657.41;5111957;28;20187;-80
2022/08/08 11:14:47;;;;;;;1.20;0.90;;;;;;;29.87;29.20;99651.56;5111970;28;20226;-77
2022/08/08 11:17:17;;;;;;;1.70;1.00;;;;;;;30.59;28.71;99660.69;5105021;28;20201;-77
2022/08/08 11:20:10;;;;;;;1.38;0.75;;;;;;;31.10;27.28;99654.41;5111799;28;20225;-79
2022/08/08 11:22:41;;;;;;;2.10;1.10;;;;;;;31.37;26.62;99652.41;5104995;28;20302;-77
2022/08/08 11:25:11;;;;;;;3.42;0.90;;;;;;;30.11;27.95;99647.41;5108953;28;20309;-77
2022/08/08 11:27:42;;;;;;;1.75;0.80;;;;;;;30.32;28.08;99645.44;5152586;27;20197;-79
2022/08/08 11:30:14;;;;;;;1.42;0.90;;;;;;;30.58;28.07;99644.50;5167317;27;20193;-78
2022/08/08 11:32:54;;;;;;;1.00;0.75;;;;;;;30.39;27.95;99638.88;5170217;27;20283;-80
2022/08/08 11:35:25;;;;;;;1.15;0.85;;;;;;;30.79;28.79;99644.28;5167712;27;20295;-80
2022/08/08 11:38:09;;;;;;;2.85;0.80;;;;;;;30.71;29.00;99648.09;5170436;27;20643;-79
2022/08/08 11:40:59;;;;;;;2.35;1.05;;;;;;;31.07;28.44;99641.16;5175691;27;20201;-80
2022/08/08 11:43:33;;;;;;;1.17;0.75;;;;;;;30.78;28.43;99646.13;5164263;27;20199;-80
2022/08/08 11:46:12;;;;;;;1.08;0.70;;;;;;;30.94;27.82;99643.97;5175698;27;20189;-80
2022/08/08 11:48:48;;;;;;;1.27;0.80;;;;;;;31.18;27.39;99632.25;5171460;27;20275;-80
2022/08/08 11:51:20;;;;;;;2.10;0.90;;;;;;;31.15;27.26;99640.06;5172664;27;20209;-80
2022/08/08 11:54:08;;;;;;;0.80;0.80;;;;;;;30.49;28.20;99636.53;5175565;27;20253;-80
2022/08/08 11:56:56;;;;;;;2.17;0.88;;;;;;;30.60;27.28;99639.69;5175552;27;20189;-80
2022/08/08 11:59:33;;;;;;;0.98;0.80;;;;;;;31.10;27.09;99628.94;5172587;27;20204;-80
2022/08/08 12:02:22;;;;;;;0.63;0.63;;;;;;;31.26;26.69;99621.06;5175670;27;20188;-80
2022/08/08 12:05:02;;;;;;;1.15;0.80;;;;;;;31.37;26.58;99625.00;5170613;27;20193;-80
2022/08/08 12:07:31;;;;;;;1.10;1.00;;;;;;;31.67;27.20;99624.34;5167865;27;20220;-77
2022/08/08 12:10:11;;;;;;;1.00;0.60;;;;;;;31.84;27.68;99622.72;5169991;27;20185;-80
2022/08/08 12:12:43;;;;;;;2.70;0.80;;;;;;;31.82;27.95;99614.75;5121132;27;20316;-80
2022/08/08 12:15:24;;;;;;;2.13;0.90;;;;;;;31.56;27.96;99618.53;5171363;27;20208;-80
2022/08/08 12:17:54;;;;;;;2.47;0.88;;;;;;;31.73;27.58;99617.97;5170380;27;20192;-80
2022/08/08 12:20:22;;;;;;;1.80;0.93;;;;;;;32.08;27.40;99607.31;5170668;27;20307;-80
2022/08/08 12:22:53;;;;;;;1.63;0.80;;;;;;;32.38;26.84;99602.78;5168513;27;20268;-80
2022/08/08 12:25:27;;;;;;;1.33;0.90;;;;;;;32.21;26.35;99607.19;5174806;27;20193;-80
2022/08/08 12:28:09;;;;;;;0.95;0.70;;;;;;;31.67;27.00;99602.44;5177213;27;20201;-80
2022/08/08 12:30:44;;;;;;;1.50;0.77;;;;;;;31.61;27.05;99598.69;5175489;27;20189;-80
2022/08/08 12:33:18;;;;;;;1.08;0.70;;;;;;;32.30;27.08;99588.56;5176482;27;20212;-78
2022/08/08 12:35:48;;;;;;;0.90;0.70;;;;;;;33.17;26.83;99589.09;5176145;27;20240;-78
2022/08/08 12:38:22;;;;;;;1.85;0.75;;;;;;;32.59;27.68;99582.28;5175478;27;20695;-78
2022/08/08 12:40:58;;;;;;;1.63;0.88;;;;;;;33.08;27.38;99585.84;5179452;27;20197;-80
2022/08/08 12:43:46;;;;;;;3.85;0.75;;;;;;;32.57;27.07;99589.91;5179629;27;20246;-80
2022/08/08 12:46:27;;;;;;;2.90;0.60;;;;;;;32.79;27.26;99572.94;5176536;27;20639;-80
2022/08/08 12:48:58;;;;;;;4.30;1.10;;;;;;;32.59;27.46;99592.41;5170756;27;20685;-79
2022/08/08 12:51:49;;;;;;;4.30;0.90;;;;;;;32.69;27.12;99592.69;5178020;27;20200;-79